createdAt,value
2023-03-16T00:02:20.197Z,-1.97
2023-03-16T00:04:48.029Z,-1.97
2023-03-16T00:07:17.342Z,-2.00
2023-03-16T00:09:43.809Z,-2.00
2023-03-16T00:12:16.121Z,-2.03
2023-03-16T00:14:45.500Z,-2.03
2023-03-16T00:17:21.068Z,-2.05
2023-03-16T00:19:55.348Z,-2.08
2023-03-16T00:22:27.251Z,-2.13
2023-03-16T00:24:55.511Z,-2.13
2023-03-16T00:27:27.865Z,-2.15
2023-03-16T00:29:56.463Z,-2.16
2023-03-16T00:32:28.753Z,-2.18
2023-03-16T00:34:55.172Z,-2.19
2023-03-16T00:37:25.875Z,-2.22
2023-03-16T00:39:56.090Z,-2.23
2023-03-16T00:42:32.045Z,-2.26
2023-03-16T00:45:04.094Z,-2.27
2023-03-16T00:47:34.899Z,-2.27
2023-03-16T00:50:02.314Z,-2.30
2023-03-16T00:52:29.570Z,-2.31
2023-03-16T00:54:56.269Z,-2.33
2023-03-16T00:57:25.108Z,-2.33
2023-03-16T00:59:51.554Z,-2.34
2023-03-16T01:02:20.886Z,-2.36
2023-03-16T01:04:47.537Z,-2.37
2023-03-16T01:07:14.919Z,-2.39
2023-03-16T01:09:43.231Z,-2.41
2023-03-16T01:12:14.581Z,-2.43
2023-03-16T01:14:45.791Z,-2.46
2023-03-16T01:17:14.740Z,-2.48
2023-03-16T01:19:42.810Z,-2.49
2023-03-16T01:22:10.469Z,-2.50
2023-03-16T01:24:39.515Z,-2.51
2023-03-16T01:27:07.993Z,-2.51
2023-03-16T01:29:35.035Z,-2.53
2023-03-16T01:32:02.994Z,-2.54
2023-03-16T01:34:32.171Z,-2.55
2023-03-16T01:37:01.485Z,-2.57
2023-03-16T01:39:30.816Z,-2.59
2023-03-16T01:41:57.656Z,-2.60
2023-03-16T01:44:36.799Z,-2.61
2023-03-16T01:47:03.165Z,-2.62
2023-03-16T01:49:38.632Z,-2.65
2023-03-16T01:52:16.547Z,-2.66
2023-03-16T01:54:49.068Z,-2.70
2023-03-16T01:57:22.242Z,-2.72
2023-03-16T01:59:54.840Z,-2.73
2023-03-16T02:02:24.184Z,-2.74
2023-03-16T02:05:00.501Z,-2.74
2023-03-16T02:07:32.937Z,-2.76
2023-03-16T02:10:03.004Z,-2.77
2023-03-16T02:12:29.896Z,-2.78
2023-03-16T02:14:56.335Z,-2.81
2023-03-16T02:17:27.428Z,-2.83
2023-03-16T02:20:24.120Z,-2.83
2023-03-16T02:22:55.347Z,-2.85
2023-03-16T02:25:38.676Z,-2.87
2023-03-16T02:28:18.285Z,-2.88
2023-03-16T02:30:45.902Z,-2.90
2023-03-16T02:33:14.738Z,-2.92
2023-03-16T02:35:41.168Z,-2.94
2023-03-16T02:38:07.949Z,-2.95
2023-03-16T02:40:38.658Z,-2.98
2023-03-16T02:43:16.698Z,-2.97
2023-03-16T02:45:51.209Z,-2.99
2023-03-16T02:48:28.496Z,-3.00
2023-03-16T02:50:55.029Z,-3.02
2023-03-16T02:53:23.088Z,-3.03
2023-03-16T02:55:52.202Z,-3.03
2023-03-16T02:58:19.018Z,-3.04
2023-03-16T03:00:48.096Z,-3.07
2023-03-16T03:03:14.567Z,-3.09
2023-03-16T03:05:41.194Z,-3.10
2023-03-16T03:08:09.114Z,-3.10
2023-03-16T03:10:35.808Z,-3.14
2023-03-16T03:13:02.430Z,-3.14
2023-03-16T03:15:29.421Z,-3.17
2023-03-16T03:17:55.856Z,-3.17
2023-03-16T03:20:22.509Z,-3.16
2023-03-16T03:22:50.454Z,-3.18
2023-03-16T03:25:18.411Z,-3.19
2023-03-16T03:27:46.557Z,-3.19
2023-03-16T03:30:19.737Z,-3.20
2023-03-16T03:32:47.048Z,-3.21
2023-03-16T03:35:16.114Z,-3.23
2023-03-16T03:37:44.212Z,-3.23
2023-03-16T03:40:16.312Z,-3.25
2023-03-16T03:42:45.874Z,-3.26
2023-03-16T03:45:13.672Z,-3.29
2023-03-16T03:47:42.578Z,-3.29
2023-03-16T03:50:11.759Z,-3.29
2023-03-16T03:52:39.454Z,-3.33
2023-03-16T03:55:09.009Z,-3.35
2023-03-16T03:57:35.780Z,-3.36
2023-03-16T04:00:07.875Z,-3.36
2023-03-16T04:02:34.665Z,-3.37
2023-03-16T04:05:01.074Z,-3.37
2023-03-16T04:07:27.395Z,-3.37
2023-03-16T04:09:53.805Z,-3.37
2023-03-16T04:12:20.479Z,-3.39
2023-03-16T04:14:47.197Z,-3.42
2023-03-16T04:17:13.619Z,-3.40
2023-03-16T04:19:40.438Z,-3.41
2023-03-16T04:22:09.552Z,-3.42
2023-03-16T04:24:35.931Z,-3.44
2023-03-16T04:27:03.955Z,-3.45
2023-03-16T04:29:33.960Z,-3.46
2023-03-16T04:32:00.371Z,-3.46
2023-03-16T04:34:32.228Z,-3.47
2023-03-16T04:37:00.892Z,-3.48
2023-03-16T04:39:27.242Z,-3.49
2023-03-16T04:41:53.594Z,-3.51
2023-03-16T04:44:19.972Z,-3.52
2023-03-16T04:46:47.427Z,-3.53
2023-03-16T04:49:14.043Z,-3.54
2023-03-16T04:51:42.474Z,-3.55
2023-03-16T04:54:08.841Z,-3.56
2023-03-16T04:56:36.318Z,-3.55
2023-03-16T04:59:03.845Z,-3.55
2023-03-16T05:01:30.410Z,-3.54
2023-03-16T05:03:59.540Z,-3.54
2023-03-16T05:06:26.162Z,-3.55
2023-03-16T05:08:57.415Z,-3.54
2023-03-16T05:11:23.777Z,-3.57
2023-03-16T05:13:50.111Z,-3.57
2023-03-16T05:16:16.639Z,-3.58
2023-03-16T05:18:43.359Z,-3.57
2023-03-16T05:21:12.610Z,-3.58
2023-03-16T05:23:41.376Z,-3.59
2023-03-16T05:26:08.525Z,-3.58
2023-03-16T05:28:35.149Z,-3.58
2023-03-16T05:31:03.720Z,-3.56
2023-03-16T05:33:32.315Z,-3.57
2023-03-16T05:35:58.744Z,-3.56
2023-03-16T05:38:27.634Z,-3.57
2023-03-16T05:40:54.488Z,-3.56
2023-03-16T05:43:25.362Z,-3.57
2023-03-16T05:45:51.764Z,-3.55
2023-03-16T05:48:18.478Z,-3.54
2023-03-16T05:50:44.832Z,-3.49
2023-03-16T05:53:11.258Z,-3.45
2023-03-16T05:55:40.445Z,-3.40
2023-03-16T05:58:11.406Z,-3.34
2023-03-16T06:00:41.049Z,-3.27
2023-03-16T06:03:07.455Z,-3.20
2023-03-16T06:05:33.985Z,-3.14
2023-03-16T06:08:02.734Z,-3.07
2023-03-16T06:10:29.447Z,-3.00
2023-03-16T06:12:56.279Z,-2.97
2023-03-16T06:15:27.321Z,-2.90
2023-03-16T06:17:54.234Z,-2.85
2023-03-16T06:20:24.200Z,-2.79
2023-03-16T06:22:51.811Z,-2.72
2023-03-16T06:25:19.608Z,-2.64
2023-03-16T06:27:49.480Z,-2.59
2023-03-16T06:30:18.133Z,-2.50
2023-03-16T06:32:46.118Z,-2.41
2023-03-16T06:35:14.864Z,-2.30
2023-03-16T06:37:41.612Z,-2.23
2023-03-16T06:40:13.471Z,-2.17
2023-03-16T06:42:45.640Z,-2.09
2023-03-16T06:45:13.105Z,-1.99
2023-03-16T06:47:39.463Z,-1.95
2023-03-16T06:50:06.616Z,-1.87
2023-03-16T06:52:33.205Z,-1.75
2023-03-16T06:55:01.410Z,-1.71
2023-03-16T06:57:27.805Z,-1.63
2023-03-16T06:59:54.223Z,-1.56
2023-03-16T07:02:24.015Z,-1.46
2023-03-16T07:04:51.555Z,-1.40
2023-03-16T07:07:19.216Z,-1.30
2023-03-16T07:09:49.329Z,-1.16
2023-03-16T07:12:15.754Z,-1.08
2023-03-16T07:14:42.149Z,-0.95
2023-03-16T07:17:08.941Z,-0.87
2023-03-16T07:19:36.553Z,-0.78
2023-03-16T07:22:03.508Z,-0.65
2023-03-16T07:24:30.727Z,-0.55
2023-03-16T07:26:57.136Z,-0.45
2023-03-16T07:29:23.588Z,-0.33
2023-03-16T07:31:50.009Z,-0.23
2023-03-16T07:34:16.369Z,-0.10
2023-03-16T07:36:42.730Z,-0.01
2023-03-16T07:39:09.075Z,0.09
2023-03-16T07:41:35.447Z,0.22
2023-03-16T07:44:02.228Z,0.33
2023-03-16T07:46:28.584Z,0.43
2023-03-16T07:48:56.280Z,0.57
2023-03-16T07:51:22.616Z,0.69
2023-03-16T07:53:49.197Z,0.84
2023-03-16T07:56:15.536Z,1.02
2023-03-16T07:58:41.955Z,1.31
2023-03-16T08:01:10.863Z,1.76
2023-03-16T08:03:38.126Z,2.22
2023-03-16T08:06:05.489Z,2.68
2023-03-16T08:08:32.745Z,3.11
2023-03-16T08:10:59.073Z,3.42
2023-03-16T08:13:27.350Z,3.77
2023-03-16T08:15:58.519Z,4.20
2023-03-16T08:18:26.546Z,4.50
2023-03-16T08:20:53.387Z,4.78
2023-03-16T08:23:19.811Z,5.13
2023-03-16T08:25:46.237Z,5.39
2023-03-16T08:28:12.771Z,5.66
2023-03-16T08:30:45.851Z,5.95
2023-03-16T08:33:12.697Z,6.08
2023-03-16T08:35:43.919Z,6.12
2023-03-16T08:38:13.519Z,6.23
2023-03-16T08:40:42.115Z,6.19
2023-03-16T08:43:09.754Z,6.36
2023-03-16T08:45:37.279Z,6.46
2023-03-16T08:48:04.922Z,6.42
2023-03-16T08:50:31.538Z,6.34
2023-03-16T08:52:58.116Z,6.52
2023-03-16T08:55:24.491Z,6.74
2023-03-16T08:57:50.853Z,6.64
2023-03-16T09:00:17.904Z,6.74
2023-03-16T09:02:44.601Z,7.05
2023-03-16T09:05:13.448Z,7.49
2023-03-16T09:07:39.970Z,7.99
2023-03-16T09:10:08.267Z,8.46
2023-03-16T09:12:36.194Z,8.47
2023-03-16T09:15:05.406Z,8.72
2023-03-16T09:17:31.793Z,9.16
2023-03-16T09:20:05.524Z,9.45
2023-03-16T09:22:41.910Z,9.63
2023-03-16T09:25:10.434Z,10.03
2023-03-16T09:27:37.441Z,10.25
2023-03-16T09:30:09.245Z,10.05
2023-03-16T09:32:37.267Z,10.19
2023-03-16T09:35:06.216Z,10.05
2023-03-16T09:37:44.577Z,9.87
2023-03-16T09:40:22.892Z,9.94
2023-03-16T09:43:03.691Z,9.88
2023-03-16T09:45:46.342Z,9.76
2023-03-16T09:48:15.510Z,10.02
2023-03-16T09:50:48.702Z,10.00
2023-03-16T09:53:22.160Z,9.81
2023-03-16T09:55:56.013Z,10.02
2023-03-16T09:58:22.952Z,10.11
2023-03-16T10:00:59.328Z,10.15
2023-03-16T10:03:48.086Z,10.25
2023-03-16T10:06:15.295Z,10.61
2023-03-16T10:08:51.363Z,11.02
2023-03-16T10:11:42.244Z,11.16
2023-03-16T10:14:47.619Z,11.37
2023-03-16T10:17:23.085Z,11.43
2023-03-16T10:20:18.103Z,11.80
2023-03-16T10:22:47.266Z,11.79
2023-03-16T10:25:49.626Z,11.72
2023-03-16T10:28:30.483Z,11.89
2023-03-16T10:31:03.538Z,11.74
2023-03-16T10:33:36.618Z,11.80
2023-03-16T10:36:27.146Z,11.25
2023-03-16T10:38:58.044Z,11.60
2023-03-16T10:41:30.524Z,11.53
2023-03-16T10:44:15.062Z,11.46
2023-03-16T10:46:48.583Z,11.18
2023-03-16T10:49:25.774Z,11.03
2023-03-16T10:51:55.802Z,10.80
2023-03-16T10:54:30.752Z,10.88
2023-03-16T10:56:58.685Z,10.89
2023-03-16T10:59:35.248Z,10.44
2023-03-16T11:02:34.901Z,10.35
2023-03-16T11:05:41.947Z,10.52
2023-03-16T11:08:40.069Z,10.56
2023-03-16T11:11:16.584Z,10.70
2023-03-16T11:13:52.350Z,10.65
2023-03-16T11:16:43.599Z,10.89
2023-03-16T11:19:24.587Z,10.98
2023-03-16T11:35:39.899Z,11.10
2023-03-16T11:38:33.982Z,10.94
2023-03-16T11:41:03.888Z,11.12
2023-03-16T11:44:15.611Z,10.98
2023-03-16T11:47:17.325Z,11.00
2023-03-16T11:49:46.325Z,10.96
2023-03-16T11:52:35.482Z,11.21
2023-03-16T11:55:04.832Z,11.41
2023-03-16T11:57:42.855Z,11.59
2023-03-16T12:00:36.932Z,11.55
2023-03-16T12:03:37.068Z,11.77
2023-03-16T12:06:48.619Z,11.80
2023-03-16T12:09:51.429Z,11.71
2023-03-16T12:12:37.519Z,11.91
2023-03-16T12:15:31.366Z,11.83
2023-03-16T12:19:21.930Z,11.39
2023-03-16T12:21:59.694Z,11.39
2023-03-16T12:24:33.906Z,11.36
2023-03-16T12:27:01.449Z,11.03
2023-03-16T12:30:08.850Z,10.93
2023-03-16T12:33:15.943Z,10.89
2023-03-16T12:35:52.723Z,10.79
2023-03-16T12:38:28.597Z,10.70
2023-03-16T12:41:23.295Z,10.56
2023-03-16T12:44:03.095Z,10.88
2023-03-16T12:46:40.584Z,10.73
2023-03-16T12:49:08.982Z,10.53
2023-03-16T12:51:41.471Z,10.36
2023-03-16T12:54:25.384Z,10.44
2023-03-16T12:56:59.519Z,10.13
2023-03-16T12:59:38.252Z,10.16
2023-03-16T13:02:06.747Z,10.08
2023-03-16T13:04:42.118Z,9.84
2023-03-16T13:07:16.243Z,9.83
2023-03-16T13:09:51.643Z,9.75
2023-03-16T13:12:31.640Z,9.76
2023-03-16T13:14:59.054Z,9.65
2023-03-16T13:17:34.238Z,9.69
2023-03-16T13:20:18.194Z,9.73
2023-03-16T13:23:18.815Z,9.52
2023-03-16T13:26:00.239Z,9.45
2023-03-16T13:28:31.592Z,9.54
2023-03-16T13:30:58.590Z,9.59
2023-03-16T13:33:28.477Z,9.57
2023-03-16T13:35:58.749Z,9.51
2023-03-16T13:38:28.400Z,9.63
2023-03-16T13:40:58.034Z,9.77
2023-03-16T13:43:31.840Z,9.63
2023-03-16T13:45:59.233Z,9.68
2023-03-16T13:48:25.708Z,9.67
2023-03-16T13:50:53.894Z,9.75
2023-03-16T13:53:33.512Z,9.82
2023-03-16T13:56:02.609Z,9.79
2023-03-16T13:58:36.262Z,9.83
2023-03-16T14:01:05.692Z,9.70
2023-03-16T14:03:38.740Z,9.79
2023-03-16T14:06:07.200Z,9.75
2023-03-16T14:08:34.638Z,9.67
2023-03-16T14:11:04.829Z,9.60
2023-03-16T14:13:36.214Z,9.63
2023-03-16T14:16:12.028Z,9.53
2023-03-16T14:18:48.815Z,9.53
2023-03-16T14:21:19.750Z,9.43
2023-03-16T14:23:51.332Z,9.40
2023-03-16T14:26:18.922Z,9.30
2023-03-16T14:29:02.743Z,9.20
2023-03-16T14:31:41.168Z,9.16
2023-03-16T14:34:31.428Z,9.11
2023-03-16T14:37:10.078Z,9.15
2023-03-16T14:39:37.594Z,9.01
2023-03-16T14:42:05.349Z,8.97
2023-03-16T14:44:35.933Z,9.04
2023-03-16T14:47:04.996Z,9.11
2023-03-16T14:49:35.697Z,9.02
2023-03-16T14:52:15.921Z,8.94
2023-03-16T14:54:42.523Z,8.94
2023-03-16T14:57:17.367Z,8.87
2023-03-16T14:59:44.011Z,8.90
2023-03-16T15:02:25.086Z,8.94
2023-03-16T15:04:51.852Z,8.96
2023-03-16T15:07:30.487Z,8.95
2023-03-16T15:10:07.075Z,9.00
2023-03-16T15:12:35.009Z,9.07
2023-03-16T15:15:17.692Z,9.06
2023-03-16T15:17:49.217Z,8.96
2023-03-16T15:20:19.824Z,8.98
2023-03-16T15:22:48.170Z,8.99
2023-03-16T15:25:37.558Z,9.01
2023-03-16T15:28:12.653Z,8.91
2023-03-16T15:30:39.236Z,8.88
2023-03-16T15:33:06.779Z,8.87
2023-03-16T15:35:33.452Z,8.94
2023-03-16T15:38:02.478Z,8.94
2023-03-16T15:40:29.866Z,8.89
2023-03-16T15:42:56.973Z,8.88
2023-03-16T15:45:24.012Z,8.86
2023-03-16T15:47:52.557Z,8.89
2023-03-16T15:50:21.873Z,8.86
2023-03-16T15:52:54.182Z,8.81
2023-03-16T15:55:28.017Z,8.79
2023-03-16T15:58:00.388Z,8.80
2023-03-16T16:00:33.180Z,8.80
2023-03-16T16:03:01.924Z,8.76
2023-03-16T16:05:30.978Z,8.77
2023-03-16T16:07:58.377Z,8.76
2023-03-16T16:10:27.079Z,8.76
2023-03-16T16:12:55.742Z,8.73
2023-03-16T16:15:33.732Z,8.72
2023-03-16T16:18:20.354Z,8.66
2023-03-16T16:20:50.214Z,8.60
2023-03-16T16:23:17.956Z,8.61
2023-03-16T16:25:44.902Z,8.55
2023-03-16T16:28:19.632Z,8.54
2023-03-16T16:30:46.380Z,8.48
2023-03-16T16:33:30.115Z,8.48
2023-03-16T16:36:00.623Z,8.45
2023-03-16T16:38:27.963Z,8.44
2023-03-16T16:40:58.147Z,8.39
2023-03-16T16:43:32.733Z,8.35
2023-03-16T16:46:04.157Z,8.36
2023-03-16T16:48:38.157Z,8.35
2023-03-16T16:51:09.715Z,8.35
2023-03-16T16:53:36.446Z,8.27
2023-03-16T16:56:02.985Z,8.23
2023-03-16T16:58:31.789Z,8.23
2023-03-16T17:01:01.076Z,8.18
2023-03-16T17:03:29.903Z,8.15
2023-03-16T17:06:00.037Z,8.08
2023-03-16T17:08:30.029Z,8.08
2023-03-16T17:10:57.133Z,8.05
2023-03-16T17:13:29.895Z,7.97
2023-03-16T17:15:57.558Z,7.94
2023-03-16T17:18:24.750Z,7.91
2023-03-16T17:21:03.914Z,7.88
2023-03-16T17:23:34.582Z,7.82
2023-03-16T17:26:13.798Z,7.76
2023-03-16T17:28:47.374Z,7.69
2023-03-16T17:31:19.533Z,7.68
2023-03-16T17:33:46.107Z,7.66
2023-03-16T17:36:16.764Z,7.61
2023-03-16T17:38:44.006Z,7.56
2023-03-16T17:41:23.890Z,7.49
2023-03-16T17:43:51.750Z,7.49
2023-03-16T17:46:20.606Z,7.45
2023-03-16T17:48:47.868Z,7.38
2023-03-16T17:51:16.835Z,7.33
2023-03-16T17:53:49.915Z,7.26
2023-03-16T17:56:23.343Z,7.22
2023-03-16T17:58:53.559Z,7.21
2023-03-16T18:01:25.543Z,7.13
2023-03-16T18:04:10.889Z,7.08
2023-03-16T18:06:41.624Z,7.07
2023-03-16T18:11:49.597Z,6.96
2023-03-16T18:14:37.592Z,6.89
2023-03-16T18:17:35.605Z,6.84
2023-03-16T18:20:03.753Z,6.79
2023-03-16T18:22:34.792Z,6.76
2023-03-16T18:25:06.397Z,6.72
2023-03-16T18:27:34.675Z,6.71
2023-03-16T18:30:07.821Z,6.68
2023-03-16T18:32:36.705Z,6.63
2023-03-16T18:35:04.247Z,6.62
2023-03-16T18:37:31.871Z,6.55
2023-03-16T18:40:01.665Z,6.51
2023-03-16T18:42:37.362Z,6.49
2023-03-16T18:45:09.291Z,6.52
2023-03-16T18:47:38.067Z,6.46
2023-03-16T18:50:07.488Z,6.42
2023-03-16T18:52:35.874Z,6.40
2023-03-16T18:55:02.460Z,6.39
2023-03-16T18:57:29.173Z,6.36
2023-03-16T19:00:00.201Z,6.36
2023-03-16T19:02:40.108Z,6.33
2023-03-16T19:10:34.083Z,6.26
2023-03-16T19:13:00.768Z,6.25
2023-03-16T19:15:31.114Z,6.25
2023-03-16T19:17:58.631Z,6.19
2023-03-16T19:37:27.007Z,6.00
2023-03-16T19:39:53.460Z,5.96
2023-03-16T19:42:31.401Z,5.94
2023-03-16T19:45:00.488Z,5.90
2023-03-16T19:47:32.007Z,5.87
2023-03-16T19:49:59.993Z,5.83
2023-03-16T19:52:38.968Z,5.77
2023-03-16T19:55:05.824Z,5.77
2023-03-16T19:57:33.894Z,5.72
2023-03-16T20:00:01.888Z,5.66
2023-03-16T20:02:40.103Z,5.62
2023-03-16T20:05:08.518Z,5.59
2023-03-16T20:07:40.141Z,5.54
2023-03-16T20:10:10.244Z,5.47
2023-03-16T20:12:42.075Z,5.40
2023-03-16T20:15:20.783Z,5.34
2023-03-16T20:17:52.006Z,5.27
2023-03-16T20:20:29.598Z,5.23
2023-03-16T20:22:59.643Z,5.19
2023-03-16T20:25:31.788Z,5.18
2023-03-16T20:28:05.239Z,5.12
2023-03-16T20:30:32.046Z,5.09
2023-03-16T20:33:08.087Z,5.05
2023-03-16T20:35:38.965Z,5.01
2023-03-16T20:38:13.901Z,5.01
2023-03-16T20:40:44.815Z,5.01
2023-03-16T20:43:23.679Z,4.98
2023-03-16T20:45:56.763Z,4.96
2023-03-16T20:48:26.071Z,4.96
2023-03-16T20:50:56.443Z,4.94
2023-03-16T20:53:24.446Z,4.93
2023-03-16T20:55:54.743Z,4.94
2023-03-16T20:58:34.523Z,4.89
2023-03-16T21:01:03.605Z,4.88
2023-03-16T21:03:34.429Z,4.84
2023-03-16T21:06:01.205Z,4.84
2023-03-16T21:08:41.654Z,4.84
2023-03-16T21:11:19.302Z,4.75
2023-03-16T21:13:52.792Z,4.78
2023-03-16T21:16:22.552Z,4.75
2023-03-16T21:18:52.463Z,4.77
2023-03-16T21:21:19.722Z,4.74
2023-03-16T21:23:47.823Z,4.73
2023-03-16T21:26:24.980Z,4.69
2023-03-16T21:28:58.197Z,4.67
2023-03-16T21:31:26.522Z,4.66
2023-03-16T21:33:56.955Z,4.62
2023-03-16T21:36:27.348Z,4.60
2023-03-16T21:38:57.851Z,4.60
2023-03-16T21:41:25.181Z,4.61
2023-03-16T21:43:55.817Z,4.51
2023-03-16T21:46:24.384Z,4.52
2023-03-16T21:48:56.320Z,4.49
2023-03-16T21:51:30.871Z,4.49
2023-03-16T21:53:58.832Z,4.49
2023-03-16T21:56:28.197Z,4.43
2023-03-16T21:58:56.927Z,4.40
2023-03-16T22:01:31.515Z,4.40
2023-03-16T22:04:04.018Z,4.37
2023-03-16T22:06:31.636Z,4.31
2023-03-16T22:08:59.977Z,4.30
